Time,TemperatureF,DewpointF,PressureIn,WindDirection,WindDirectionDegrees,WindSpeedMPH,WindSpeedGustMPH,Humidity,HourlyPrecipIn,Conditions,Clouds,dailyrainin,SoftwareType,DateUTC
2013-03-25 00:03:00,33.0,28.0,29.70,WNW,288,12.0,26.0,81,0.00,,,0.12,,2013-03-25 05:03:00,
2013-03-25 00:12:00,33.0,28.0,29.70,WNW,288,12.0,26.0,81,0.00,,,0.12,,2013-03-25 05:12:00,
2013-03-25 00:22:00,33.0,29.0,29.70,West,281,11.0,24.0,86,0.00,,,0.12,,2013-03-25 05:22:00,
2013-03-25 00:32:00,32.0,29.0,29.71,West,279,12.0,21.0,89,0.00,,,0.12,,2013-03-25 05:32:00,
2013-03-25 00:42:00,32.0,29.0,29.71,West,279,12.0,21.0,89,0.00,,,0.12,,2013-03-25 05:42:00,
2013-03-25 00:52:00,32.0,30.0,29.71,West,278,10.0,26.0,91,0.00,,,0.12,,2013-03-25 05:52:00,
2013-03-25 01:02:00,32.0,30.0,29.72,West,280,11.0,21.0,91,0.00,,,0.12,,2013-03-25 06:02:00,
2013-03-25 01:12:00,32.0,30.0,29.72,West,280,11.0,21.0,91,0.00,,,0.12,,2013-03-25 06:12:00,
2013-03-25 01:22:00,32.0,29.0,29.72,West,279,8.0,20.0,89,0.00,,,0.12,,2013-03-25 06:22:00,
2013-03-25 01:32:00,32.0,28.0,29.72,WNW,282,10.0,20.0,86,0.00,,,0.12,,2013-03-25 06:32:00,
2013-03-25 01:42:00,32.0,28.0,29.72,WNW,282,10.0,20.0,86,0.00,,,0.12,,2013-03-25 06:42:00,
2013-03-25 01:52:00,33.0,28.0,29.73,WNW,286,10.0,20.0,83,0.00,,,0.12,,2013-03-25 06:52:00,
2013-03-25 02:02:00,33.0,28.0,29.73,WNW,289,11.0,22.0,82,0.00,,,0.12,,2013-03-25 07:02:00,
2013-03-25 02:12:00,33.0,28.0,29.73,WNW,289,11.0,22.0,82,0.00,,,0.12,,2013-03-25 07:12:00,
2013-03-25 02:22:00,33.0,28.0,29.75,West,280,11.0,25.0,82,0.00,,,0.12,,2013-03-25 07:22:00,
2013-03-25 02:32:00,32.0,28.0,29.75,WNW,286,11.0,22.0,84,0.00,,,0.12,,2013-03-25 07:32:00,
2013-03-25 02:42:00,32.0,28.0,29.75,WNW,286,11.0,22.0,84,0.00,,,0.12,,2013-03-25 07:42:00,
2013-03-25 02:53:00,32.0,28.0,29.75,WNW,285,8.0,16.0,86,0.00,,,0.12,,2013-03-25 07:53:00,
2013-03-25 03:02:00,32.0,28.0,29.75,WNW,289,9.0,20.0,86,0.00,,,0.12,,2013-03-25 08:02:00,
2013-03-25 03:12:00,32.0,28.0,29.75,WNW,289,9.0,20.0,86,0.00,,,0.12,,2013-03-25 08:12:00,
2013-03-25 03:22:00,32.0,28.0,29.75,WNW,284,9.0,17.0,85,0.00,,,0.12,,2013-03-25 08:22:00,
2013-03-25 03:32:00,32.0,27.0,29.75,West,280,9.0,20.0,83,0.00,,,0.12,,2013-03-25 08:32:00,
2013-03-25 03:42:00,32.0,27.0,29.75,West,280,9.0,20.0,83,0.00,,,0.12,,2013-03-25 08:42:00,
2013-03-25 03:52:00,33.0,28.0,29.75,West,279,9.0,17.0,83,0.00,,,0.12,,2013-03-25 08:52:00,
2013-03-25 04:02:00,33.0,28.0,29.75,WNW,282,10.0,22.0,82,0.00,,,0.12,,2013-03-25 09:02:00,
2013-03-25 04:12:00,33.0,28.0,29.75,WNW,282,10.0,22.0,82,0.00,,,0.12,,2013-03-25 09:12:00,
2013-03-25 04:22:00,33.0,28.0,29.75,WNW,287,8.0,19.0,83,0.00,,,0.12,,2013-03-25 09:22:00,
2013-03-25 04:33:00,33.0,28.0,29.75,WNW,282,11.0,21.0,82,0.00,,,0.12,,2013-03-25 09:33:00,
2013-03-25 04:42:00,33.0,28.0,29.75,WNW,282,11.0,21.0,82,0.00,,,0.12,,2013-03-25 09:42:00,
2013-03-25 04:52:00,33.0,28.0,29.76,West,277,8.0,14.0,82,0.00,,,0.12,,2013-03-25 09:52:00,
2013-03-25 05:03:00,33.0,28.0,29.76,West,280,8.0,19.0,82,0.00,,,0.12,,2013-03-25 10:03:00,
2013-03-25 05:12:00,33.0,28.0,29.76,West,280,8.0,19.0,82,0.00,,,0.12,,2013-03-25 10:12:00,
2013-03-25 05:22:00,33.0,27.0,29.76,WNW,286,10.0,19.0,78,0.00,,,0.12,,2013-03-25 10:22:00,
2013-03-25 05:32:00,33.0,27.0,29.76,WNW,297,9.0,21.0,77,0.00,,,0.12,,2013-03-25 10:32:00,
2013-03-25 05:42:00,33.0,27.0,29.76,WNW,297,9.0,21.0,77,0.00,,,0.12,,2013-03-25 10:42:00,
2013-03-25 05:54:00,33.0,26.0,29.77,WNW,291,9.0,21.0,76,0.00,,,0.12,,2013-03-25 10:54:00,
2013-03-25 06:03:00,33.0,26.0,29.77,WNW,293,8.0,19.0,76,0.00,,,0.12,,2013-03-25 11:03:00,
2013-03-25 06:12:00,33.0,26.0,29.78,WNW,293,10.0,19.0,75,0.00,,,0.12,,2013-03-25 11:12:00,
2013-03-25 06:23:00,33.0,26.0,29.78,WNW,293,10.0,19.0,75,0.00,,,0.12,,2013-03-25 11:23:00,
2013-03-25 06:32:00,33.0,26.0,29.78,WNW,291,10.0,25.0,74,0.00,,,0.12,,2013-03-25 11:32:00,
2013-03-25 06:42:00,33.0,26.0,29.78,WNW,291,10.0,25.0,74,0.00,,,0.12,,2013-03-25 11:42:00,
2013-03-25 06:52:00,33.0,27.0,29.79,WNW,291,8.0,16.0,77,0.00,,,0.12,,2013-03-25 11:52:00,
2013-03-25 07:02:00,33.0,26.0,29.79,WNW,287,8.0,16.0,76,0.00,,,0.12,,2013-03-25 12:02:00,
2013-03-25 07:12:00,33.0,26.0,29.80,WNW,290,8.0,17.0,76,0.00,,,0.12,,2013-03-25 12:12:00,
2013-03-25 07:23:00,33.0,26.0,29.80,WNW,290,8.0,17.0,76,0.00,,,0.12,,2013-03-25 12:23:00,
2013-03-25 07:32:00,33.0,26.0,29.80,WNW,293,8.0,18.0,75,0.00,,,0.12,,2013-03-25 12:32:00,
2013-03-25 07:42:00,33.0,26.0,29.80,WNW,293,8.0,18.0,75,0.00,,,0.12,,2013-03-25 12:42:00,
2013-03-25 07:52:00,33.0,26.0,29.81,WNW,293,10.0,19.0,75,0.00,,,0.12,,2013-03-25 12:52:00,
2013-03-25 08:02:00,33.0,26.0,29.82,WNW,291,6.0,17.0,74,0.00,,,0.12,,2013-03-25 13:02:00,
2013-03-25 08:13:00,33.0,26.0,29.82,WNW,291,6.0,17.0,74,0.00,,,0.12,,2013-03-25 13:13:00,
2013-03-25 08:22:00,33.0,25.0,29.82,WNW,290,9.0,20.0,73,0.00,,,0.12,,2013-03-25 13:22:00,
2013-03-25 08:32:00,33.0,25.0,29.82,WNW,290,9.0,20.0,73,0.00,,,0.12,,2013-03-25 13:32:00,
2013-03-25 08:42:00,33.0,25.0,29.82,WNW,290,9.0,20.0,73,0.00,,,0.12,,2013-03-25 13:42:00,
2013-03-25 08:52:00,33.0,25.0,29.82,WNW,290,9.0,20.0,73,0.00,,,0.12,,2013-03-25 13:52:00,
2013-03-25 09:33:00,33.0,25.0,29.87,WNW,295,9.0,19.0,72,0.00,,,0.12,,2013-03-25 14:33:00,
2013-03-25 09:43:00,33.0,25.0,29.87,WNW,295,9.0,19.0,72,0.00,,,0.12,,2013-03-25 14:43:00,
2013-03-25 09:53:00,33.0,25.0,29.87,WNW,297,8.0,17.0,71,0.00,,,0.12,,2013-03-25 14:53:00,
2013-03-25 10:02:00,33.0,25.0,29.88,WNW,283,9.0,21.0,71,0.00,,,0.12,,2013-03-25 15:02:00,
2013-03-25 10:12:00,33.0,25.0,29.88,WNW,283,9.0,21.0,71,0.00,,,0.12,,2013-03-25 15:12:00,
2013-03-25 10:22:00,34.0,26.0,29.88,WNW,287,7.0,17.0,72,0.00,,,0.12,,2013-03-25 15:22:00,
2013-03-25 10:32:00,33.0,25.0,29.89,WNW,297,7.0,16.0,71,0.00,,,0.12,,2013-03-25 15:32:00,
2013-03-25 10:42:00,33.0,25.0,29.89,WNW,297,7.0,16.0,71,0.00,,,0.12,,2013-03-25 15:42:00,
2013-03-25 10:53:00,34.0,25.0,29.89,WNW,303,11.0,20.0,69,0.00,,,0.12,,2013-03-25 15:53:00,
2013-03-25 11:03:00,34.0,25.0,29.90,WNW,293,10.0,20.0,69,0.00,,,0.12,,2013-03-25 16:03:00,
2013-03-25 11:12:00,34.0,25.0,29.90,WNW,293,10.0,20.0,69,0.00,,,0.12,,2013-03-25 16:12:00,
2013-03-25 11:23:00,34.0,25.0,29.90,WNW,293,10.0,20.0,69,0.00,,,0.12,,2013-03-25 16:23:00,
2013-03-25 11:33:00,33.0,24.0,29.92,WNW,287,11.0,24.0,69,0.00,,,0.12,,2013-03-25 16:33:00,
2013-03-25 11:42:00,33.0,24.0,29.92,WNW,287,11.0,24.0,69,0.00,,,0.12,,2013-03-25 16:42:00,
2013-03-25 11:53:00,34.0,25.0,29.92,WNW,291,9.0,17.0,69,0.00,,,0.11,,2013-03-25 16:53:00,
2013-03-25 12:02:00,34.0,25.0,29.92,WNW,289,8.0,17.0,69,0.00,,,0.05,,2013-03-25 17:02:00,
2013-03-25 12:12:00,34.0,25.0,29.92,WNW,289,8.0,17.0,69,0.00,,,0.05,,2013-03-25 17:12:00,
2013-03-25 12:23:00,34.0,25.0,29.93,WNW,297,5.0,13.0,69,0.00,,,0.03,,2013-03-25 17:23:00,
2013-03-25 12:32:00,34.0,25.0,29.93,WNW,297,9.0,20.0,68,0.00,,,0.03,,2013-03-25 17:32:00,
2013-03-25 12:42:00,34.0,25.0,29.93,WNW,297,9.0,20.0,68,0.00,,,0.03,,2013-03-25 17:42:00,
2013-03-25 12:52:00,34.0,25.0,29.93,WNW,285,10.0,21.0,68,0.00,,,0.02,,2013-03-25 17:52:00,
2013-03-25 13:03:00,35.0,25.0,29.94,West,274,8.0,21.0,67,0.00,,,0.02,,2013-03-25 18:03:00,
2013-03-25 13:12:00,35.0,25.0,29.94,West,274,8.0,21.0,67,0.00,,,0.02,,2013-03-25 18:12:00,
2013-03-25 13:22:00,34.0,25.0,29.94,WNW,282,10.0,24.0,68,0.00,,,0.01,,2013-03-25 18:22:00,
2013-03-25 13:33:00,34.0,27.0,29.95,WNW,292,7.0,17.0,75,0.00,,,0.01,,2013-03-25 18:33:00,
2013-03-25 13:42:00,34.0,27.0,29.95,WNW,292,7.0,17.0,75,0.00,,,0.01,,2013-03-25 18:42:00,
2013-03-25 13:52:00,34.0,26.0,29.95,WNW,290,8.0,20.0,71,0.00,,,0.01,,2013-03-25 18:52:00,
2013-03-25 14:03:00,34.0,26.0,29.95,WNW,292,8.0,19.0,71,0.00,,,0.01,,2013-03-25 19:03:00,
2013-03-25 14:12:00,34.0,26.0,29.95,WNW,292,8.0,19.0,71,0.00,,,0.01,,2013-03-25 19:12:00,
2013-03-25 14:22:00,34.0,26.0,29.95,West,279,8.0,18.0,72,0.00,,,0.01,,2013-03-25 19:22:00,
2013-03-25 14:33:00,34.0,26.0,29.95,WNW,293,10.0,21.0,71,0.00,,,0.01,,2013-03-25 19:33:00,
2013-03-25 14:42:00,34.0,26.0,29.95,WNW,293,10.0,21.0,71,0.00,,,0.01,,2013-03-25 19:42:00,
2013-03-25 14:52:00,35.0,27.0,29.96,WNW,293,9.0,19.0,72,0.00,,,0.01,,2013-03-25 19:52:00,
2013-03-25 15:02:00,34.0,26.0,29.96,WNW,299,9.0,19.0,73,0.00,,,0.01,,2013-03-25 20:02:00,
2013-03-25 15:12:00,34.0,26.0,29.96,WNW,299,9.0,19.0,73,0.00,,,0.01,,2013-03-25 20:12:00,
2013-03-25 15:22:00,34.0,28.0,29.97,WNW,289,7.0,14.0,77,0.00,,,0.01,,2013-03-25 20:22:00,
2013-03-25 15:32:00,34.0,28.0,29.97,WNW,283,10.0,19.0,77,0.00,,,0.01,,2013-03-25 20:32:00,
2013-03-25 15:42:00,34.0,28.0,29.97,WNW,283,10.0,19.0,77,0.00,,,0.01,,2013-03-25 20:42:00,
2013-03-25 15:52:00,34.0,29.0,29.97,WNW,282,9.0,21.0,82,0.00,,,0.01,,2013-03-25 20:52:00,
2013-03-25 16:02:00,34.0,29.0,29.97,West,281,9.0,17.0,82,0.00,,,0.01,,2013-03-25 21:02:00,
2013-03-25 16:12:00,34.0,29.0,29.97,West,281,9.0,17.0,82,0.00,,,0.01,,2013-03-25 21:12:00,
2013-03-25 16:22:00,35.0,29.0,29.97,WNW,289,9.0,18.0,79,0.00,,,0.01,,2013-03-25 21:22:00,
2013-03-25 16:33:00,34.0,29.0,29.98,WNW,297,8.0,14.0,81,0.00,,,0.01,,2013-03-25 21:33:00,
2013-03-25 16:42:00,34.0,29.0,29.98,WNW,297,8.0,14.0,81,0.00,,,0.01,,2013-03-25 21:42:00,
2013-03-25 16:52:00,35.0,30.0,29.98,West,281,8.0,17.0,81,0.00,,,0.01,,2013-03-25 21:52:00,
2013-03-25 17:03:00,35.0,28.0,29.99,WNW,287,9.0,18.0,76,0.00,,,0.01,,2013-03-25 22:03:00,
2013-03-25 17:12:00,35.0,28.0,29.99,WNW,287,9.0,18.0,76,0.00,,,0.01,,2013-03-25 22:12:00,
2013-03-25 17:23:00,35.0,28.0,29.99,WNW,287,8.0,16.0,76,0.00,,,0.01,,2013-03-25 22:23:00,
2013-03-25 17:33:00,36.0,29.0,30.00,NW,305,7.0,17.0,74,0.00,,,0.01,,2013-03-25 22:33:00,
2013-03-25 17:42:00,36.0,29.0,30.00,NW,305,7.0,17.0,74,0.00,,,0.01,,2013-03-25 22:42:00,
2013-03-25 17:52:00,36.0,28.0,30.00,WNW,285,8.0,20.0,72,0.00,,,0.01,,2013-03-25 22:52:00,
2013-03-25 18:03:00,36.0,28.0,30.01,West,276,8.0,16.0,72,0.00,,,0.00,,2013-03-25 23:03:00,
2013-03-25 18:12:00,36.0,28.0,30.01,West,276,8.0,16.0,72,0.00,,,0.00,,2013-03-25 23:12:00,
2013-03-25 18:23:00,36.0,28.0,30.01,West,275,7.0,16.0,72,0.00,,,0.00,,2013-03-25 23:23:00,
2013-03-25 18:32:00,36.0,29.0,30.01,WNW,289,7.0,17.0,74,0.00,,,0.00,,2013-03-25 23:32:00,
2013-03-25 18:42:00,36.0,29.0,30.01,WNW,289,7.0,17.0,74,0.00,,,0.00,,2013-03-25 23:42:00,
2013-03-25 18:52:00,36.0,29.0,30.02,WNW,293,5.0,13.0,75,0.00,,,0.00,,2013-03-25 23:52:00,
2013-03-25 19:02:00,35.0,29.0,30.03,WNW,284,6.0,14.0,78,0.00,,,0.00,,2013-03-26 00:02:00,
2013-03-25 19:12:00,35.0,29.0,30.03,WNW,284,6.0,14.0,78,0.00,,,0.00,,2013-03-26 00:12:00,
2013-03-25 19:22:00,34.0,29.0,30.04,WNW,284,4.0,8.0,82,0.00,,,0.00,,2013-03-26 00:22:00,
2013-03-25 19:32:00,34.0,29.0,30.04,NW,309,1.0,7.0,81,0.00,,,0.00,,2013-03-26 00:32:00,
2013-03-25 19:42:00,34.0,29.0,30.04,NW,309,1.0,7.0,81,0.00,,,0.00,,2013-03-26 00:42:00,
2013-03-25 19:52:00,34.0,29.0,30.06,NNW,348,4.0,11.0,82,0.00,,,0.00,,2013-03-26 00:52:00,
2013-03-25 20:02:00,34.0,29.0,30.06,NW,322,3.0,8.0,82,0.00,,,0.00,,2013-03-26 01:02:00,
2013-03-25 20:12:00,34.0,29.0,30.06,NW,322,3.0,8.0,82,0.00,,,0.00,,2013-03-26 01:12:00,
2013-03-25 20:22:00,34.0,29.0,30.06,NW,309,4.0,12.0,82,0.00,,,0.00,,2013-03-26 01:22:00,
2013-03-25 20:32:00,33.0,28.0,30.06,WNW,295,2.0,8.0,82,0.00,,,0.00,,2013-03-26 01:32:00,
2013-03-25 20:42:00,33.0,28.0,30.06,WNW,295,2.0,8.0,82,0.00,,,0.00,,2013-03-26 01:42:00,
2013-03-25 20:52:00,33.0,28.0,30.07,WNW,296,0.0,5.0,82,0.00,,,0.00,,2013-03-26 01:52:00,
2013-03-25 21:02:00,34.0,28.0,30.08,WNW,299,4.0,9.0,79,0.00,,,0.00,,2013-03-26 02:02:00,
2013-03-25 21:12:00,34.0,28.0,30.08,WNW,299,4.0,9.0,79,0.00,,,0.00,,2013-03-26 02:12:00,
2013-03-25 21:22:00,34.0,28.0,30.08,WNW,294,4.0,10.0,78,0.00,,,0.00,,2013-03-26 02:22:00,
2013-03-25 21:32:00,34.0,28.0,30.08,WNW,286,3.0,8.0,78,0.00,,,0.00,,2013-03-26 02:32:00,
2013-03-25 21:42:00,34.0,28.0,30.08,WNW,286,3.0,8.0,78,0.00,,,0.00,,2013-03-26 02:42:00,
2013-03-25 21:52:00,34.0,28.0,30.08,WNW,298,4.0,8.0,79,0.00,,,0.00,,2013-03-26 02:52:00,
2013-03-25 22:02:00,34.0,29.0,30.09,WNW,298,4.0,10.0,81,0.00,,,0.00,,2013-03-26 03:02:00,
2013-03-25 22:12:00,34.0,29.0,30.09,WNW,298,4.0,10.0,81,0.00,,,0.00,,2013-03-26 03:12:00,
2013-03-25 22:22:00,33.0,28.0,30.09,WNW,291,5.0,11.0,83,0.00,,,0.00,,2013-03-26 03:22:00,
2013-03-25 22:33:00,33.0,29.0,30.09,WNW,293,4.0,8.0,85,0.00,,,0.00,,2013-03-26 03:33:00,
2013-03-25 22:42:00,33.0,29.0,30.09,WNW,293,4.0,8.0,85,0.00,,,0.00,,2013-03-26 03:42:00,
2013-03-25 22:52:00,33.0,30.0,30.10,WNW,293,3.0,10.0,89,0.00,,,0.00,,2013-03-26 03:52:00,
2013-03-25 23:03:00,33.0,30.0,30.10,WNW,292,4.0,9.0,90,0.00,,,0.00,,2013-03-26 04:03:00,
2013-03-25 23:12:00,33.0,30.0,30.10,WNW,292,4.0,9.0,90,0.00,,,0.00,,2013-03-26 04:12:00,
2013-03-25 23:23:00,32.0,30.0,30.11,WNW,298,4.0,8.0,91,0.00,,,0.00,,2013-03-26 04:23:00,
2013-03-25 23:32:00,32.0,30.0,30.11,WNW,302,5.0,11.0,92,0.00,,,0.00,,2013-03-26 04:32:00,
2013-03-25 23:43:00,32.0,30.0,30.11,WNW,302,5.0,11.0,92,0.00,,,0.00,,2013-03-26 04:43:00,
2013-03-25 23:53:00,32.0,30.0,30.11,WNW,301,4.0,10.0,93,0.00,,,0.00,,2013-03-26 04:53:00,